sensor_id;sensor_type;location;lat;lon;timestamp;P1;durP1;ratioP1;P2;durP2;ratioP2
27560;SDS011;15003;47.476;11.990;2022-07-06T00:00:17;2.50;;;2.30;;
27560;SDS011;15003;47.476;11.990;2022-07-06T00:02:43;2.90;;;2.60;;
27560;SDS011;15003;47.476;11.990;2022-07-06T00:05:08;2.97;;;2.67;;
27560;SDS011;15003;47.476;11.990;2022-07-06T00:07:34;2.75;;;2.38;;
27560;SDS011;15003;47.476;11.990;2022-07-06T00:10:00;3.38;;;2.90;;
27560;SDS011;15003;47.476;11.990;2022-07-06T00:12:25;3.60;;;3.30;;
27560;SDS011;15003;47.476;11.990;2022-07-06T00:14:51;7.53;;;4.95;;
27560;SDS011;15003;47.476;11.990;2022-07-06T00:17:17;18.00;;;9.55;;
27560;SDS011;15003;47.476;11.990;2022-07-06T00:19:43;7.32;;;5.35;;
27560;SDS011;15003;47.476;11.990;2022-07-06T00:22:08;6.55;;;3.92;;
27560;SDS011;15003;47.476;11.990;2022-07-06T00:24:34;4.05;;;3.00;;
27560;SDS011;15003;47.476;11.990;2022-07-06T00:27:00;7.47;;;3.17;;
27560;SDS011;15003;47.476;11.990;2022-07-06T00:29:26;2.40;;;2.20;;
27560;SDS011;15003;47.476;11.990;2022-07-06T00:31:51;2.58;;;2.20;;
27560;SDS011;15003;47.476;11.990;2022-07-06T00:34:17;2.92;;;2.30;;
27560;SDS011;15003;47.476;11.990;2022-07-06T00:36:43;3.22;;;2.20;;
27560;SDS011;15003;47.476;11.990;2022-07-06T00:39:08;3.00;;;2.08;;
27560;SDS011;15003;47.476;11.990;2022-07-06T00:41:34;2.58;;;2.38;;
27560;SDS011;15003;47.476;11.990;2022-07-06T00:44:00;2.75;;;2.35;;
27560;SDS011;15003;47.476;11.990;2022-07-06T00:46:32;2.40;;;2.20;;
27560;SDS011;15003;47.476;11.990;2022-07-06T00:48:58;2.67;;;2.15;;
27560;SDS011;15003;47.476;11.990;2022-07-06T00:51:29;2.42;;;2.22;;
27560;SDS011;15003;47.476;11.990;2022-07-06T00:54:00;4.00;;;2.37;;
27560;SDS011;15003;47.476;11.990;2022-07-06T00:56:29;2.72;;;2.45;;
27560;SDS011;15003;47.476;11.990;2022-07-06T00:58:56;3.70;;;2.60;;
27560;SDS011;15003;47.476;11.990;2022-07-06T01:01:24;3.60;;;2.25;;
27560;SDS011;15003;47.476;11.990;2022-07-06T01:03:50;3.55;;;2.50;;
27560;SDS011;15003;47.476;11.990;2022-07-06T01:06:16;3.45;;;2.45;;
27560;SDS011;15003;47.476;11.990;2022-07-06T01:08:42;4.93;;;2.80;;
27560;SDS011;15003;47.476;11.990;2022-07-06T01:11:08;6.03;;;2.53;;
27560;SDS011;15003;47.476;11.990;2022-07-06T01:13:34;3.60;;;2.95;;
27560;SDS011;15003;47.476;11.990;2022-07-06T01:15:59;2.58;;;2.28;;
27560;SDS011;15003;47.476;11.990;2022-07-06T01:18:25;4.07;;;2.55;;
27560;SDS011;15003;47.476;11.990;2022-07-06T01:20:51;4.93;;;2.63;;
27560;SDS011;15003;47.476;11.990;2022-07-06T01:23:40;3.15;;;2.67;;
27560;SDS011;15003;47.476;11.990;2022-07-06T01:26:08;3.60;;;2.60;;
27560;SDS011;15003;47.476;11.990;2022-07-06T01:28:44;2.67;;;2.38;;
27560;SDS011;15003;47.476;11.990;2022-07-06T01:31:25;3.55;;;2.50;;
27560;SDS011;15003;47.476;11.990;2022-07-06T01:33:52;2.80;;;2.60;;
27560;SDS011;15003;47.476;11.990;2022-07-06T01:36:20;4.07;;;2.60;;
27560;SDS011;15003;47.476;11.990;2022-07-06T01:38:47;2.78;;;2.30;;
27560;SDS011;15003;47.476;11.990;2022-07-06T01:41:15;3.88;;;2.83;;
27560;SDS011;15003;47.476;11.990;2022-07-06T01:43:42;3.22;;;2.38;;
27560;SDS011;15003;47.476;11.990;2022-07-06T01:46:08;4.57;;;3.35;;
27560;SDS011;15003;47.476;11.990;2022-07-06T01:48:35;3.55;;;2.63;;
27560;SDS011;15003;47.476;11.990;2022-07-06T01:51:02;3.97;;;2.83;;
27560;SDS011;15003;47.476;11.990;2022-07-06T01:53:29;3.35;;;3.05;;
27560;SDS011;15003;47.476;11.990;2022-07-06T01:55:55;4.15;;;2.90;;
27560;SDS011;15003;47.476;11.990;2022-07-06T01:58:21;3.60;;;2.80;;
27560;SDS011;15003;47.476;11.990;2022-07-06T02:00:47;6.40;;;2.90;;
27560;SDS011;15003;47.476;11.990;2022-07-06T02:03:13;5.15;;;2.90;;
27560;SDS011;15003;47.476;11.990;2022-07-06T02:05:38;3.15;;;2.70;;
27560;SDS011;15003;47.476;11.990;2022-07-06T02:08:04;4.43;;;2.90;;
27560;SDS011;15003;47.476;11.990;2022-07-06T02:10:30;3.65;;;2.90;;
27560;SDS011;15003;47.476;11.990;2022-07-06T02:12:56;4.60;;;2.70;;
27560;SDS011;15003;47.476;11.990;2022-07-06T02:15:22;3.25;;;2.60;;
27560;SDS011;15003;47.476;11.990;2022-07-06T02:17:47;5.30;;;2.90;;
27560;SDS011;15003;47.476;11.990;2022-07-06T02:20:13;3.85;;;2.50;;
27560;SDS011;15003;47.476;11.990;2022-07-06T02:22:39;3.22;;;2.80;;
27560;SDS011;15003;47.476;11.990;2022-07-06T02:25:05;3.33;;;2.65;;
27560;SDS011;15003;47.476;11.990;2022-07-06T02:27:31;5.93;;;3.08;;
27560;SDS011;15003;47.476;11.990;2022-07-06T02:29:57;3.88;;;2.65;;
27560;SDS011;15003;47.476;11.990;2022-07-06T02:32:22;3.17;;;2.88;;
27560;SDS011;15003;47.476;11.990;2022-07-06T02:34:48;3.67;;;2.83;;
27560;SDS011;15003;47.476;11.990;2022-07-06T02:37:14;2.85;;;2.55;;
27560;SDS011;15003;47.476;11.990;2022-07-06T02:39:40;4.35;;;2.95;;
27560;SDS011;15003;47.476;11.990;2022-07-06T02:42:05;4.93;;;2.85;;
27560;SDS011;15003;47.476;11.990;2022-07-06T02:44:31;3.85;;;2.80;;
27560;SDS011;15003;47.476;11.990;2022-07-06T02:46:57;3.22;;;2.63;;
27560;SDS011;15003;47.476;11.990;2022-07-06T02:49:23;4.28;;;2.50;;
27560;SDS011;15003;47.476;11.990;2022-07-06T02:51:48;3.25;;;2.95;;
27560;SDS011;15003;47.476;11.990;2022-07-06T02:54:14;2.97;;;2.72;;
27560;SDS011;15003;47.476;11.990;2022-07-06T02:56:40;4.60;;;2.95;;
27560;SDS011;15003;47.476;11.990;2022-07-06T02:59:06;2.80;;;2.50;;
27560;SDS011;15003;47.476;11.990;2022-07-06T03:01:31;3.03;;;2.45;;
27560;SDS011;15003;47.476;11.990;2022-07-06T03:03:57;3.85;;;2.45;;
27560;SDS011;15003;47.476;11.990;2022-07-06T03:06:23;4.35;;;2.70;;
27560;SDS011;15003;47.476;11.990;2022-07-06T03:08:48;3.38;;;2.35;;
27560;SDS011;15003;47.476;11.990;2022-07-06T03:11:14;3.40;;;2.55;;
27560;SDS011;15003;47.476;11.990;2022-07-06T03:13:40;3.22;;;2.53;;
27560;SDS011;15003;47.476;11.990;2022-07-06T03:16:06;2.42;;;2.22;;
27560;SDS011;15003;47.476;11.990;2022-07-06T03:18:31;2.83;;;2.45;;
27560;SDS011;15003;47.476;11.990;2022-07-06T03:20:57;2.50;;;2.30;;
27560;SDS011;15003;47.476;11.990;2022-07-06T03:23:23;4.15;;;2.22;;
27560;SDS011;15003;47.476;11.990;2022-07-06T03:25:49;2.42;;;2.22;;
27560;SDS011;15003;47.476;11.990;2022-07-06T03:28:14;2.47;;;2.28;;
27560;SDS011;15003;47.476;11.990;2022-07-06T03:30:40;2.70;;;2.50;;
27560;SDS011;15003;47.476;11.990;2022-07-06T03:33:06;2.58;;;2.20;;
27560;SDS011;15003;47.476;11.990;2022-07-06T03:35:31;3.13;;;2.40;;
27560;SDS011;15003;47.476;11.990;2022-07-06T03:37:57;3.67;;;2.45;;
27560;SDS011;15003;47.476;11.990;2022-07-06T03:40:23;3.88;;;2.45;;
27560;SDS011;15003;47.476;11.990;2022-07-06T03:42:49;2.35;;;2.10;;
27560;SDS011;15003;47.476;11.990;2022-07-06T03:45:14;2.65;;;2.22;;
27560;SDS011;15003;47.476;11.990;2022-07-06T03:47:40;2.80;;;2.20;;
27560;SDS011;15003;47.476;11.990;2022-07-06T03:50:06;2.85;;;2.20;;
27560;SDS011;15003;47.476;11.990;2022-07-06T03:52:33;3.17;;;2.88;;
27560;SDS011;15003;47.476;11.990;2022-07-06T03:55:00;2.65;;;2.45;;
27560;SDS011;15003;47.476;11.990;2022-07-06T03:57:26;2.85;;;2.35;;
27560;SDS011;15003;47.476;11.990;2022-07-06T03:59:51;3.47;;;2.28;;
27560;SDS011;15003;47.476;11.990;2022-07-06T04:02:17;3.42;;;2.38;;
27560;SDS011;15003;47.476;11.990;2022-07-06T04:04:43;4.10;;;2.88;;
27560;SDS011;15003;47.476;11.990;2022-07-06T04:07:08;2.85;;;2.50;;
27560;SDS011;15003;47.476;11.990;2022-07-06T04:09:34;2.83;;;2.47;;
27560;SDS011;15003;47.476;11.990;2022-07-06T04:12:00;2.95;;;2.50;;
27560;SDS011;15003;47.476;11.990;2022-07-06T04:14:26;3.20;;;2.55;;
27560;SDS011;15003;47.476;11.990;2022-07-06T04:16:51;2.33;;;2.08;;
27560;SDS011;15003;47.476;11.990;2022-07-06T04:19:17;3.15;;;2.20;;
27560;SDS011;15003;47.476;11.990;2022-07-06T04:21:43;3.35;;;2.20;;
27560;SDS011;15003;47.476;11.990;2022-07-06T04:24:08;2.80;;;2.40;;
27560;SDS011;15003;47.476;11.990;2022-07-06T04:26:34;3.58;;;2.40;;
27560;SDS011;15003;47.476;11.990;2022-07-06T04:29:00;2.50;;;2.30;;
27560;SDS011;15003;47.476;11.990;2022-07-06T04:31:26;3.38;;;2.17;;
27560;SDS011;15003;47.476;11.990;2022-07-06T04:33:51;2.53;;;2.15;;
27560;SDS011;15003;47.476;11.990;2022-07-06T04:36:17;3.55;;;2.00;;
27560;SDS011;15003;47.476;11.990;2022-07-06T04:38:43;2.45;;;2.25;;
27560;SDS011;15003;47.476;11.990;2022-07-06T04:41:08;3.67;;;2.55;;
27560;SDS011;15003;47.476;11.990;2022-07-06T04:43:34;2.53;;;2.33;;
27560;SDS011;15003;47.476;11.990;2022-07-06T04:46:00;3.95;;;2.70;;
27560;SDS011;15003;47.476;11.990;2022-07-06T04:48:26;3.38;;;2.67;;
27560;SDS011;15003;47.476;11.990;2022-07-06T04:50:51;3.17;;;2.55;;
27560;SDS011;15003;47.476;11.990;2022-07-06T04:53:17;5.10;;;2.50;;
27560;SDS011;15003;47.476;11.990;2022-07-06T04:55:43;3.45;;;2.28;;
27560;SDS011;15003;47.476;11.990;2022-07-06T04:58:09;4.88;;;2.40;;
27560;SDS011;15003;47.476;11.990;2022-07-06T05:00:34;2.78;;;2.42;;
27560;SDS011;15003;47.476;11.990;2022-07-06T05:03:00;2.28;;;2.08;;
27560;SDS011;15003;47.476;11.990;2022-07-06T05:05:26;2.58;;;2.20;;
27560;SDS011;15003;47.476;11.990;2022-07-06T05:07:52;2.30;;;2.00;;
27560;SDS011;15003;47.476;11.990;2022-07-06T05:10:17;2.30;;;2.03;;
27560;SDS011;15003;47.476;11.990;2022-07-06T05:12:43;2.90;;;2.30;;
27560;SDS011;15003;47.476;11.990;2022-07-06T05:15:09;2.47;;;2.13;;
27560;SDS011;15003;47.476;11.990;2022-07-06T05:17:35;2.33;;;2.13;;
27560;SDS011;15003;47.476;11.990;2022-07-06T05:20:01;3.28;;;2.05;;
27560;SDS011;15003;47.476;11.990;2022-07-06T05:22:27;3.60;;;2.00;;
27560;SDS011;15003;47.476;11.990;2022-07-06T05:24:52;2.05;;;1.77;;
27560;SDS011;15003;47.476;11.990;2022-07-06T05:27:18;4.65;;;2.30;;
27560;SDS011;15003;47.476;11.990;2022-07-06T05:29:44;3.10;;;2.20;;
27560;SDS011;15003;47.476;11.990;2022-07-06T05:32:10;3.05;;;2.33;;
27560;SDS011;15003;47.476;11.990;2022-07-06T05:34:35;3.20;;;2.50;;
27560;SDS011;15003;47.476;11.990;2022-07-06T05:37:01;6.32;;;2.40;;
27560;SDS011;15003;47.476;11.990;2022-07-06T05:39:27;3.47;;;2.00;;
27560;SDS011;15003;47.476;11.990;2022-07-06T05:41:53;2.60;;;2.40;;
27560;SDS011;15003;47.476;11.990;2022-07-06T05:44:19;4.80;;;2.35;;
27560;SDS011;15003;47.476;11.990;2022-07-06T05:46:45;2.45;;;2.20;;
27560;SDS011;15003;47.476;11.990;2022-07-06T05:49:10;3.88;;;2.05;;
27560;SDS011;15003;47.476;11.990;2022-07-06T05:51:36;2.90;;;2.30;;
27560;SDS011;15003;47.476;11.990;2022-07-06T05:54:02;3.10;;;2.25;;
27560;SDS011;15003;47.476;11.990;2022-07-06T05:56:28;3.15;;;2.20;;
27560;SDS011;15003;47.476;11.990;2022-07-06T05:58:54;3.25;;;2.38;;
27560;SDS011;15003;47.476;11.990;2022-07-06T06:01:20;2.88;;;2.08;;
27560;SDS011;15003;47.476;11.990;2022-07-06T06:03:45;2.60;;;2.20;;
27560;SDS011;15003;47.476;11.990;2022-07-06T06:06:11;2.80;;;2.50;;
27560;SDS011;15003;47.476;11.990;2022-07-06T06:08:37;4.57;;;2.40;;
27560;SDS011;15003;47.476;11.990;2022-07-06T06:11:03;3.53;;;2.17;;
27560;SDS011;15003;47.476;11.990;2022-07-06T06:13:28;3.33;;;2.17;;
27560;SDS011;15003;47.476;11.990;2022-07-06T06:15:54;2.70;;;2.30;;
27560;SDS011;15003;47.476;11.990;2022-07-06T06:18:20;4.28;;;2.67;;
27560;SDS011;15003;47.476;11.990;2022-07-06T06:20:46;3.35;;;2.20;;
27560;SDS011;15003;47.476;11.990;2022-07-06T06:23:11;3.97;;;2.75;;
27560;SDS011;15003;47.476;11.990;2022-07-06T06:25:38;2.40;;;2.17;;
27560;SDS011;15003;47.476;11.990;2022-07-06T06:28:08;4.07;;;2.80;;
27560;SDS011;15003;47.476;11.990;2022-07-06T06:30:36;4.38;;;2.17;;
27560;SDS011;15003;47.476;11.990;2022-07-06T06:33:09;2.45;;;2.13;;
27560;SDS011;15003;47.476;11.990;2022-07-06T06:35:37;2.90;;;2.10;;
27560;SDS011;15003;47.476;11.990;2022-07-06T06:38:07;2.47;;;2.10;;
27560;SDS011;15003;47.476;11.990;2022-07-06T06:40:33;2.22;;;2.03;;
27560;SDS011;15003;47.476;11.990;2022-07-06T06:42:59;3.22;;;2.05;;
27560;SDS011;15003;47.476;11.990;2022-07-06T06:45:25;3.88;;;2.55;;
27560;SDS011;15003;47.476;11.990;2022-07-06T06:47:50;2.40;;;2.10;;
27560;SDS011;15003;47.476;11.990;2022-07-06T06:50:16;3.10;;;1.90;;
27560;SDS011;15003;47.476;11.990;2022-07-06T06:52:42;3.22;;;2.40;;
27560;SDS011;15003;47.476;11.990;2022-07-06T06:55:08;2.53;;;2.00;;
27560;SDS011;15003;47.476;11.990;2022-07-06T06:57:34;2.22;;;2.03;;
27560;SDS011;15003;47.476;11.990;2022-07-06T07:00:00;2.88;;;2.10;;
27560;SDS011;15003;47.476;11.990;2022-07-06T07:02:26;2.50;;;2.30;;
27560;SDS011;15003;47.476;11.990;2022-07-06T07:04:52;2.50;;;2.30;;
27560;SDS011;15003;47.476;11.990;2022-07-06T07:07:18;4.07;;;2.33;;
27560;SDS011;15003;47.476;11.990;2022-07-06T07:09:43;2.30;;;2.10;;
27560;SDS011;15003;47.476;11.990;2022-07-06T07:12:09;3.35;;;2.60;;
27560;SDS011;15003;47.476;11.990;2022-07-06T07:14:35;3.55;;;2.38;;
27560;SDS011;15003;47.476;11.990;2022-07-06T07:17:01;3.00;;;2.63;;
27560;SDS011;15003;47.476;11.990;2022-07-06T07:19:26;2.33;;;2.13;;
27560;SDS011;15003;47.476;11.990;2022-07-06T07:21:52;2.45;;;2.03;;
27560;SDS011;15003;47.476;11.990;2022-07-06T07:24:18;2.17;;;2.00;;
27560;SDS011;15003;47.476;11.990;2022-07-06T07:26:44;2.85;;;2.10;;
27560;SDS011;15003;47.476;11.990;2022-07-06T07:29:09;2.55;;;2.15;;
27560;SDS011;15003;47.476;11.990;2022-07-06T07:31:35;2.60;;;2.05;;
27560;SDS011;15003;47.476;11.990;2022-07-06T07:34:01;2.90;;;2.28;;
27560;SDS011;15003;47.476;11.990;2022-07-06T07:36:26;2.38;;;2.17;;
27560;SDS011;15003;47.476;11.990;2022-07-06T07:38:52;3.72;;;1.92;;
27560;SDS011;15003;47.476;11.990;2022-07-06T07:41:18;2.92;;;2.40;;
27560;SDS011;15003;47.476;11.990;2022-07-06T07:43:44;2.20;;;2.00;;
27560;SDS011;15003;47.476;11.990;2022-07-06T07:46:09;2.80;;;2.13;;
27560;SDS011;15003;47.476;11.990;2022-07-06T07:48:35;2.17;;;2.00;;
27560;SDS011;15003;47.476;11.990;2022-07-06T07:51:01;2.72;;;1.90;;
27560;SDS011;15003;47.476;11.990;2022-07-06T07:53:27;2.45;;;2.03;;
27560;SDS011;15003;47.476;11.990;2022-07-06T07:55:53;3.17;;;1.85;;
27560;SDS011;15003;47.476;11.990;2022-07-06T07:58:19;2.65;;;1.70;;
27560;SDS011;15003;47.476;11.990;2022-07-06T08:00:44;2.25;;;1.85;;
27560;SDS011;15003;47.476;11.990;2022-07-06T08:03:10;2.05;;;1.80;;
27560;SDS011;15003;47.476;11.990;2022-07-06T08:05:36;2.38;;;2.05;;
27560;SDS011;15003;47.476;11.990;2022-07-06T08:08:02;3.22;;;1.98;;
27560;SDS011;15003;47.476;11.990;2022-07-06T08:10:28;2.20;;;1.90;;
27560;SDS011;15003;47.476;11.990;2022-07-06T08:12:54;2.22;;;2.03;;
27560;SDS011;15003;47.476;11.990;2022-07-06T08:15:20;2.10;;;1.90;;
27560;SDS011;15003;47.476;11.990;2022-07-06T08:17:46;2.33;;;2.13;;
27560;SDS011;15003;47.476;11.990;2022-07-06T08:20:11;1.83;;;1.73;;
27560;SDS011;15003;47.476;11.990;2022-07-06T08:22:37;1.95;;;1.63;;
27560;SDS011;15003;47.476;11.990;2022-07-06T08:25:04;2.08;;;1.92;;
27560;SDS011;15003;47.476;11.990;2022-07-06T08:27:30;3.10;;;1.90;;
27560;SDS011;15003;47.476;11.990;2022-07-06T08:29:56;2.05;;;1.65;;
27560;SDS011;15003;47.476;11.990;2022-07-06T08:32:22;2.60;;;1.80;;
27560;SDS011;15003;47.476;11.990;2022-07-06T08:34:47;1.80;;;1.70;;
27560;SDS011;15003;47.476;11.990;2022-07-06T08:37:13;1.92;;;1.77;;
27560;SDS011;15003;47.476;11.990;2022-07-06T08:39:39;2.75;;;1.90;;
27560;SDS011;15003;47.476;11.990;2022-07-06T08:42:05;2.20;;;1.90;;
27560;SDS011;15003;47.476;11.990;2022-07-06T08:44:32;2.17;;;1.70;;
27560;SDS011;15003;47.476;11.990;2022-07-06T08:47:02;2.20;;;1.70;;
27560;SDS011;15003;47.476;11.990;2022-07-06T08:49:30;3.90;;;1.83;;
27560;SDS011;15003;47.476;11.990;2022-07-06T08:51:57;1.80;;;1.70;;
27560;SDS011;15003;47.476;11.990;2022-07-06T08:54:23;1.67;;;1.58;;
27560;SDS011;15003;47.476;11.990;2022-07-06T08:56:49;3.20;;;1.90;;
27560;SDS011;15003;47.476;11.990;2022-07-06T08:59:16;2.70;;;1.77;;
27560;SDS011;15003;47.476;11.990;2022-07-06T09:01:42;1.73;;;1.63;;
27560;SDS011;15003;47.476;11.990;2022-07-06T09:04:09;2.85;;;2.00;;
27560;SDS011;15003;47.476;11.990;2022-07-06T09:06:38;2.08;;;1.80;;
27560;SDS011;15003;47.476;11.990;2022-07-06T09:09:07;6.07;;;2.08;;
27560;SDS011;15003;47.476;11.990;2022-07-06T09:11:34;4.00;;;2.45;;
27560;SDS011;15003;47.476;11.990;2022-07-06T09:14:00;2.95;;;2.10;;
27560;SDS011;15003;47.476;11.990;2022-07-06T09:16:26;1.67;;;1.58;;
27560;SDS011;15003;47.476;11.990;2022-07-06T09:18:54;2.53;;;1.50;;
27560;SDS011;15003;47.476;11.990;2022-07-06T09:21:25;2.65;;;1.77;;
27560;SDS011;15003;47.476;11.990;2022-07-06T09:23:54;2.20;;;1.45;;
27560;SDS011;15003;47.476;11.990;2022-07-06T09:26:22;1.60;;;1.50;;
27560;SDS011;15003;47.476;11.990;2022-07-06T09:28:48;2.42;;;1.50;;
27560;SDS011;15003;47.476;11.990;2022-07-06T09:31:14;1.50;;;1.40;;
27560;SDS011;15003;47.476;11.990;2022-07-06T09:36:37;1.40;;;1.30;;
27560;SDS011;15003;47.476;11.990;2022-07-06T09:39:18;1.60;;;1.42;;
27560;SDS011;15003;47.476;11.990;2022-07-06T09:41:51;1.92;;;1.40;;
27560;SDS011;15003;47.476;11.990;2022-07-06T09:44:26;1.55;;;1.30;;
27560;SDS011;15003;47.476;11.990;2022-07-06T09:46:57;1.83;;;1.13;;
27560;SDS011;15003;47.476;11.990;2022-07-06T09:49:26;1.55;;;1.45;;
27560;SDS011;15003;47.476;11.990;2022-07-06T09:51:54;2.83;;;1.50;;
27560;SDS011;15003;47.476;11.990;2022-07-06T09:56:52;1.95;;;1.58;;
27560;SDS011;15003;47.476;11.990;2022-07-06T09:59:20;1.58;;;1.48;;
27560;SDS011;15003;47.476;11.990;2022-07-06T10:01:51;1.50;;;1.40;;
27560;SDS011;15003;47.476;11.990;2022-07-06T10:04:19;2.67;;;1.45;;
27560;SDS011;15003;47.476;11.990;2022-07-06T10:06:46;2.17;;;1.60;;
27560;SDS011;15003;47.476;11.990;2022-07-06T10:09:13;1.63;;;1.50;;
27560;SDS011;15003;47.476;11.990;2022-07-06T10:11:41;1.70;;;1.60;;
27560;SDS011;15003;47.476;11.990;2022-07-06T10:14:15;1.65;;;1.38;;
27560;SDS011;15003;47.476;11.990;2022-07-06T10:16:47;1.60;;;1.50;;
27560;SDS011;15003;47.476;11.990;2022-07-06T10:19:13;1.42;;;1.30;;
27560;SDS011;15003;47.476;11.990;2022-07-06T10:21:41;2.65;;;1.42;;
27560;SDS011;15003;47.476;11.990;2022-07-06T10:24:08;2.45;;;1.33;;
27560;SDS011;15003;47.476;11.990;2022-07-06T10:26:35;1.48;;;1.35;;
27560;SDS011;15003;47.476;11.990;2022-07-06T10:29:02;1.73;;;1.40;;
27560;SDS011;15003;47.476;11.990;2022-07-06T10:31:30;2.08;;;1.20;;
27560;SDS011;15003;47.476;11.990;2022-07-06T10:34:02;2.00;;;1.50;;
27560;SDS011;15003;47.476;11.990;2022-07-06T10:39:02;3.33;;;1.60;;
27560;SDS011;15003;47.476;11.990;2022-07-06T10:41:31;1.40;;;1.30;;
27560;SDS011;15003;47.476;11.990;2022-07-06T10:44:14;1.55;;;1.23;;
27560;SDS011;15003;47.476;11.990;2022-07-06T10:46:49;1.30;;;1.20;;
27560;SDS011;15003;47.476;11.990;2022-07-06T10:49:20;2.20;;;1.40;;
27560;SDS011;15003;47.476;11.990;2022-07-06T10:51:48;2.53;;;1.23;;
27560;SDS011;15003;47.476;11.990;2022-07-06T10:54:15;1.52;;;1.42;;
27560;SDS011;15003;47.476;11.990;2022-07-06T10:56:46;1.40;;;1.30;;
27560;SDS011;15003;47.476;11.990;2022-07-06T11:04:46;1.70;;;1.60;;
27560;SDS011;15003;47.476;11.990;2022-07-06T11:07:14;1.50;;;1.30;;
27560;SDS011;15003;47.476;11.990;2022-07-06T11:09:53;1.48;;;1.20;;
27560;SDS011;15003;47.476;11.990;2022-07-06T11:12:21;1.80;;;1.30;;
27560;SDS011;15003;47.476;11.990;2022-07-06T11:14:48;1.98;;;1.50;;
27560;SDS011;15003;47.476;11.990;2022-07-06T11:17:15;1.80;;;1.38;;
27560;SDS011;15003;47.476;11.990;2022-07-06T11:19:57;1.40;;;1.30;;
27560;SDS011;15003;47.476;11.990;2022-07-06T11:22:35;2.38;;;1.60;;
27560;SDS011;15003;47.476;11.990;2022-07-06T11:25:02;1.73;;;1.40;;
27560;SDS011;15003;47.476;11.990;2022-07-06T11:27:30;1.50;;;1.40;;
27560;SDS011;15003;47.476;11.990;2022-07-06T11:29:56;1.80;;;1.40;;
27560;SDS011;15003;47.476;11.990;2022-07-06T11:32:22;2.00;;;1.30;;
27560;SDS011;15003;47.476;11.990;2022-07-06T11:34:50;1.30;;;1.20;;
27560;SDS011;15003;47.476;11.990;2022-07-06T11:37:16;1.38;;;1.27;;
27560;SDS011;15003;47.476;11.990;2022-07-06T11:39:42;2.22;;;1.20;;
27560;SDS011;15003;47.476;11.990;2022-07-06T11:42:10;2.00;;;1.13;;
27560;SDS011;15003;47.476;11.990;2022-07-06T11:44:38;2.10;;;1.40;;
27560;SDS011;15003;47.476;11.990;2022-07-06T11:47:05;2.65;;;1.50;;
27560;SDS011;15003;47.476;11.990;2022-07-06T11:49:33;1.50;;;1.38;;
27560;SDS011;15003;47.476;11.990;2022-07-06T11:52:00;1.90;;;1.42;;
27560;SDS011;15003;47.476;11.990;2022-07-06T11:54:32;2.05;;;1.50;;
27560;SDS011;15003;47.476;11.990;2022-07-06T11:56:58;1.77;;;1.42;;
27560;SDS011;15003;47.476;11.990;2022-07-06T11:59:25;2.03;;;1.30;;
27560;SDS011;15003;47.476;11.990;2022-07-06T12:02:00;1.90;;;1.40;;
27560;SDS011;15003;47.476;11.990;2022-07-06T12:04:28;3.67;;;1.42;;
27560;SDS011;15003;47.476;11.990;2022-07-06T12:06:55;1.67;;;1.42;;
27560;SDS011;15003;47.476;11.990;2022-07-06T12:09:46;1.35;;;1.20;;
27560;SDS011;15003;47.476;11.990;2022-07-06T12:12:13;1.90;;;1.42;;
27560;SDS011;15003;47.476;11.990;2022-07-06T12:14:39;1.30;;;1.20;;
27560;SDS011;15003;47.476;11.990;2022-07-06T12:17:07;2.03;;;1.40;;
27560;SDS011;15003;47.476;11.990;2022-07-06T12:19:39;2.13;;;1.50;;
27560;SDS011;15003;47.476;11.990;2022-07-06T12:22:06;1.88;;;1.20;;
27560;SDS011;15003;47.476;11.990;2022-07-06T12:24:33;1.50;;;1.40;;
27560;SDS011;15003;47.476;11.990;2022-07-06T12:27:11;2.03;;;1.55;;
27560;SDS011;15003;47.476;11.990;2022-07-06T12:29:41;3.22;;;1.85;;
27560;SDS011;15003;47.476;11.990;2022-07-06T12:32:13;3.95;;;1.38;;
27560;SDS011;15003;47.476;11.990;2022-07-06T12:34:47;1.95;;;1.60;;
27560;SDS011;15003;47.476;11.990;2022-07-06T12:37:27;1.58;;;1.30;;
27560;SDS011;15003;47.476;11.990;2022-07-06T12:39:53;2.17;;;1.50;;
27560;SDS011;15003;47.476;11.990;2022-07-06T12:42:19;1.90;;;1.23;;
27560;SDS011;15003;47.476;11.990;2022-07-06T12:44:48;1.58;;;1.40;;
27560;SDS011;15003;47.476;11.990;2022-07-06T12:47:17;1.88;;;1.20;;
27560;SDS011;15003;47.476;11.990;2022-07-06T12:50:08;1.30;;;1.20;;
27560;SDS011;15003;47.476;11.990;2022-07-06T12:52:36;1.38;;;1.20;;
27560;SDS011;15003;47.476;11.990;2022-07-06T12:55:03;1.40;;;1.30;;
27560;SDS011;15003;47.476;11.990;2022-07-06T12:57:43;1.65;;;1.40;;
27560;SDS011;15003;47.476;11.990;2022-07-06T13:00:13;1.85;;;1.40;;
27560;SDS011;15003;47.476;11.990;2022-07-06T13:02:40;2.63;;;1.30;;
27560;SDS011;15003;47.476;11.990;2022-07-06T13:05:12;1.30;;;1.20;;
27560;SDS011;15003;47.476;11.990;2022-07-06T13:07:44;1.23;;;1.13;;
27560;SDS011;15003;47.476;11.990;2022-07-06T13:10:14;2.20;;;1.40;;
27560;SDS011;15003;47.476;11.990;2022-07-06T13:12:41;1.67;;;1.30;;
27560;SDS011;15003;47.476;11.990;2022-07-06T13:15:07;2.58;;;1.35;;
27560;SDS011;15003;47.476;11.990;2022-07-06T13:17:35;1.65;;;1.38;;
27560;SDS011;15003;47.476;11.990;2022-07-06T13:20:01;3.33;;;1.45;;
27560;SDS011;15003;47.476;11.990;2022-07-06T13:22:27;1.60;;;1.13;;
27560;SDS011;15003;47.476;11.990;2022-07-06T13:24:52;2.00;;;1.38;;
27560;SDS011;15003;47.476;11.990;2022-07-06T13:27:18;1.50;;;1.30;;
27560;SDS011;15003;47.476;11.990;2022-07-06T13:29:44;1.35;;;1.15;;
27560;SDS011;15003;47.476;11.990;2022-07-06T13:32:10;1.42;;;1.33;;
27560;SDS011;15003;47.476;11.990;2022-07-06T13:34:35;2.10;;;1.30;;
27560;SDS011;15003;47.476;11.990;2022-07-06T13:37:02;2.00;;;1.25;;
27560;SDS011;15003;47.476;11.990;2022-07-06T13:39:29;1.30;;;1.20;;
27560;SDS011;15003;47.476;11.990;2022-07-06T13:41:55;1.50;;;1.40;;
27560;SDS011;15003;47.476;11.990;2022-07-06T13:44:21;1.77;;;1.40;;
27560;SDS011;15003;47.476;11.990;2022-07-06T13:46:48;1.55;;;1.40;;
27560;SDS011;15003;47.476;11.990;2022-07-06T13:49:15;1.40;;;1.30;;
27560;SDS011;15003;47.476;11.990;2022-07-06T13:51:41;1.38;;;1.23;;
27560;SDS011;15003;47.476;11.990;2022-07-06T13:54:06;1.27;;;1.00;;
27560;SDS011;15003;47.476;11.990;2022-07-06T13:56:33;1.80;;;1.13;;
27560;SDS011;15003;47.476;11.990;2022-07-06T13:58:59;1.77;;;1.33;;
27560;SDS011;15003;47.476;11.990;2022-07-06T14:01:25;2.80;;;1.30;;
27560;SDS011;15003;47.476;11.990;2022-07-06T14:03:51;1.10;;;1.00;;
27560;SDS011;15003;47.476;11.990;2022-07-06T14:06:18;1.48;;;1.38;;
27560;SDS011;15003;47.476;11.990;2022-07-06T14:08:44;1.40;;;1.30;;
27560;SDS011;15003;47.476;11.990;2022-07-06T14:11:10;1.52;;;1.17;;
27560;SDS011;15003;47.476;11.990;2022-07-06T14:13:37;1.90;;;1.17;;
27560;SDS011;15003;47.476;11.990;2022-07-06T14:16:04;1.45;;;1.35;;
27560;SDS011;15003;47.476;11.990;2022-07-06T14:18:30;3.33;;;1.30;;
27560;SDS011;15003;47.476;11.990;2022-07-06T14:20:56;1.83;;;1.30;;
27560;SDS011;15003;47.476;11.990;2022-07-06T14:23:23;1.90;;;1.20;;
27560;SDS011;15003;47.476;11.990;2022-07-06T14:25:49;2.58;;;1.38;;
27560;SDS011;15003;47.476;11.990;2022-07-06T14:28:16;1.45;;;1.35;;
27560;SDS011;15003;47.476;11.990;2022-07-06T14:30:43;4.28;;;1.40;;
27560;SDS011;15003;47.476;11.990;2022-07-06T14:33:10;2.20;;;1.40;;
27560;SDS011;15003;47.476;11.990;2022-07-06T14:35:38;2.05;;;1.20;;
27560;SDS011;15003;47.476;11.990;2022-07-06T14:38:08;1.77;;;1.40;;
27560;SDS011;15003;47.476;11.990;2022-07-06T14:40:34;1.40;;;1.30;;
27560;SDS011;15003;47.476;11.990;2022-07-06T14:43:01;1.52;;;1.40;;
27560;SDS011;15003;47.476;11.990;2022-07-06T14:45:28;2.65;;;1.52;;